PWSweather.com
Personal Weather Stations
Station Observations
SUBOTICARS
SuboticaYU

SuboticaYU

Lat: 46.1296717, Lon: 19.641551

Elevation: 361

Station Type: Nexus

http://sumeteo.info

Latest ConditionsUpdated 6:00:00 PM GMT+01:01 Thursday, Sep 3, 2015
Currently Today's Max Today's Min Today's Average
Temperature 81.1°F27.3°C 88.5°F31.4°C 62.2°F16.8°C 75.1°F23.9°C
Dew Point 65.5°F18.6°C 65.6°F18.7°C 57.0°F13.9°C 61.5°F16.4°C
Winds Calm Calm 3.5 mph ENE5.6 kmh ENE - 1.7 mph 2.7 kmh
Wind Gusts -- 6.9 mph11.1 kmh - -
Humidity 59% 87% 44% 65%
Pressure 29.91 in1012.9 mb 30.01 in1016.3 mb 29.91 in1012.9 mb -
Precipitation - 0.03 in0.8 mm - -
Hour Temp Dew Point Humidity Winds Wind Gusts Pressure Precip Precip Rate Daily Precip Total
06:00 PM 81.1°F27.3°C 65.5°F18.6°C 59% Calm Calm -- 29.91 in1012.9 mb - 0.00 in0.0 mm 0.03 in0.8 mm
05:50 PM 81.9°F27.7°C 65.6°F18.7°C 58% Calm Calm -- 29.91 in1012.9 mb - 0.00 in0.0 mm 0.03 in0.8 mm
05:40 PM 82.8°F28.2°C 65.5°F18.6°C 56% Calm Calm -- 29.91 in1012.9 mb - 0.00 in0.0 mm 0.03 in0.8 mm
05:30 PM 83.3°F28.5°C 64.9°F18.3°C 54% Calm Calm 1.2 mph1.9 kmh 29.91 in1012.9 mb - 0.00 in0.0 mm 0.03 in0.8 mm
05:20 PM 83.8°F28.8°C 64.9°F18.3°C 53% 1.2 mph NE1.9 kmh NE -- 29.91 in1012.9 mb - 0.00 in0.0 mm 0.03 in0.8 mm
05:10 PM 84.4°F29.1°C 64.3°F17.9°C 51% 1.2 mph ESE1.9 kmh ESE 2.3 mph3.7 kmh 29.91 in1012.9 mb - 0.00 in0.0 mm 0.03 in0.8 mm
05:00 PM 85.1°F29.5°C 64.4°F18.0°C 50% 2.3 mph E3.7 kmh E 3.5 mph5.6 kmh 29.91 in1012.9 mb - 0.00 in0.0 mm 0.03 in0.8 mm
04:50 PM 85.6°F29.8°C 64.3°F17.9°C 49% 2.3 mph ESE3.7 kmh ESE 2.3 mph3.7 kmh 29.91 in1012.9 mb - 0.00 in0.0 mm 0.03 in0.8 mm
04:40 PM 86.2°F30.1°C 64.8°F18.2°C 49% 1.2 mph ENE1.9 kmh ENE 4.6 mph7.4 kmh 29.92 in1013.2 mb - 0.00 in0.0 mm 0.03 in0.8 mm
04:30 PM 86.7°F30.4°C 64.7°F18.2°C 48% 2.3 mph ENE3.7 kmh ENE 1.2 mph1.9 kmh 29.92 in1013.2 mb - 0.00 in0.0 mm 0.03 in0.8 mm
04:20 PM 87.3°F30.7°C 64.6°F18.1°C 47% 1.2 mph E1.9 kmh E 3.5 mph5.6 kmh 29.92 in1013.2 mb - 0.00 in0.0 mm 0.03 in0.8 mm
04:10 PM 87.6°F30.9°C 64.3°F17.9°C 46% 1.2 mph NE1.9 kmh NE 2.3 mph3.7 kmh 29.92 in1013.2 mb - 0.00 in0.0 mm 0.03 in0.8 mm
04:00 PM 87.6°F30.9°C 63.7°F17.6°C 45% 1.2 mph SE1.9 kmh SE 1.2 mph1.9 kmh 29.93 in1013.5 mb - 0.00 in0.0 mm 0.03 in0.8 mm
03:50 PM 87.6°F30.9°C 63.7°F17.6°C 45% 1.2 mph SE1.9 kmh SE 4.6 mph7.4 kmh 29.93 in1013.5 mb - 0.00 in0.0 mm 0.03 in0.8 mm
03:40 PM 88.2°F31.2°C 64.1°F17.8°C 45% 2.3 mph ESE3.7 kmh ESE 1.2 mph1.9 kmh 29.92 in1013.2 mb - 0.00 in0.0 mm 0.03 in0.8 mm
03:30 PM 88.3°F31.3°C 64.3°F17.9°C 45% 1.2 mph NNW1.9 kmh NNW 3.5 mph5.6 kmh 29.92 in1013.2 mb - 0.00 in0.0 mm 0.03 in0.8 mm
03:20 PM 88.2°F31.2°C 63.5°F17.5°C 44% 2.3 mph NW3.7 kmh NW 3.5 mph5.6 kmh 29.93 in1013.5 mb - 0.00 in0.0 mm 0.03 in0.8 mm
03:10 PM 87.8°F31.0°C 63.2°F17.3°C 44% 1.2 mph WSW1.9 kmh WSW 3.5 mph5.6 kmh 29.93 in1013.5 mb - 0.00 in0.0 mm 0.03 in0.8 mm
03:00 PM 87.8°F31.0°C 63.8°F17.7°C 45% Calm Calm -- 29.94 in1013.9 mb - 0.00 in0.0 mm 0.03 in0.8 mm
02:50 PM 87.3°F30.7°C 63.3°F17.4°C 45% 1.2 mph ESE1.9 kmh ESE 1.2 mph1.9 kmh 29.94 in1013.9 mb - 0.00 in0.0 mm 0.03 in0.8 mm
02:40 PM 87.4°F30.8°C 62.8°F17.1°C 44% 2.3 mph NE3.7 kmh NE 2.3 mph3.7 kmh 29.94 in1013.9 mb - 0.00 in0.0 mm 0.03 in0.8 mm
02:30 PM 88.3°F31.3°C 63.7°F17.6°C 44% 2.3 mph NW3.7 kmh NW 3.5 mph5.6 kmh 29.94 in1013.9 mb - 0.00 in0.0 mm 0.03 in0.8 mm
02:20 PM 88.5°F31.4°C 63.8°F17.7°C 44% 2.3 mph ESE3.7 kmh ESE 1.2 mph1.9 kmh 29.94 in1013.9 mb - 0.00 in0.0 mm 0.03 in0.8 mm
02:10 PM 88.2°F31.2°C 64.1°F17.8°C 45% 3.5 mph ENE5.6 kmh ENE 2.3 mph3.7 kmh 29.94 in1013.9 mb - 0.00 in0.0 mm 0.03 in0.8 mm
02:00 PM 88.5°F31.4°C 64.5°F18.1°C 45% 1.2 mph SSW1.9 kmh SSW 2.3 mph3.7 kmh 29.95 in1014.2 mb - 0.00 in0.0 mm 0.03 in0.8 mm
01:50 PM 88.0°F31.1°C 64.0°F17.8°C 45% 2.3 mph ESE3.7 kmh ESE 2.3 mph3.7 kmh 29.95 in1014.2 mb - 0.00 in0.0 mm 0.03 in0.8 mm
01:40 PM 87.8°F31.0°C 64.4°F18.0°C 46% 3.5 mph SE5.6 kmh SE 3.5 mph5.6 kmh 29.95 in1014.2 mb - 0.00 in0.0 mm 0.03 in0.8 mm
01:30 PM 87.3°F30.7°C 64.0°F17.8°C 46% 3.5 mph NE5.6 kmh NE 2.3 mph3.7 kmh 29.95 in1014.2 mb - 0.00 in0.0 mm 0.03 in0.8 mm
01:20 PM 87.8°F31.0°C 64.4°F18.0°C 46% 1.2 mph S1.9 kmh S 3.5 mph5.6 kmh 29.96 in1014.6 mb - 0.00 in0.0 mm 0.03 in0.8 mm
01:10 PM 86.7°F30.4°C 64.7°F18.2°C 48% 2.3 mph ENE3.7 kmh ENE 2.3 mph3.7 kmh 29.96 in1014.6 mb - 0.00 in0.0 mm 0.03 in0.8 mm
01:00 PM 86.7°F30.4°C 64.1°F17.8°C 47% 2.3 mph ENE3.7 kmh ENE 3.5 mph5.6 kmh 29.96 in1014.6 mb - 0.00 in0.0 mm 0.03 in0.8 mm
12:50 PM 86.9°F30.5°C 64.2°F17.9°C 47% 1.2 mph E1.9 kmh E 2.3 mph3.7 kmh 29.96 in1014.6 mb - 0.00 in0.0 mm 0.03 in0.8 mm
12:40 PM 86.4°F30.2°C 64.9°F18.3°C 49% 2.3 mph ESE3.7 kmh ESE -- 29.97 in1014.9 mb - 0.00 in0.0 mm 0.03 in0.8 mm
12:30 PM 85.3°F29.6°C 64.0°F17.8°C 49% 2.3 mph SSE3.7 kmh SSE 2.3 mph3.7 kmh 29.97 in1014.9 mb - 0.00 in0.0 mm 0.03 in0.8 mm
12:20 PM 85.3°F29.6°C 64.5°F18.1°C 50% 1.2 mph NW1.9 kmh NW 2.3 mph3.7 kmh 29.97 in1014.9 mb - 0.00 in0.0 mm 0.03 in0.8 mm
12:10 PM 84.7°F29.3°C 64.0°F17.8°C 50% 1.2 mph ENE1.9 kmh ENE 1.2 mph1.9 kmh 29.97 in1014.9 mb - 0.00 in0.0 mm 0.03 in0.8 mm
12:00 PM 84.9°F29.4°C 63.6°F17.6°C 49% 2.3 mph NNW3.7 kmh NNW 1.2 mph1.9 kmh 29.98 in1015.2 mb - 0.00 in0.0 mm 0.03 in0.8 mm
11:50 AM 84.7°F29.3°C 64.0°F17.8°C 50% 1.2 mph NW1.9 kmh NW 2.3 mph3.7 kmh 29.98 in1015.2 mb - 0.00 in0.0 mm 0.03 in0.8 mm
11:40 AM 84.2°F29.0°C 63.5°F17.5°C 50% 2.3 mph SSE3.7 kmh SSE 2.3 mph3.7 kmh 29.98 in1015.2 mb - 0.00 in0.0 mm 0.03 in0.8 mm
11:30 AM 83.7°F28.7°C 63.0°F17.2°C 50% 2.3 mph S3.7 kmh S 4.6 mph7.4 kmh 29.98 in1015.2 mb - 0.00 in0.0 mm 0.03 in0.8 mm
11:20 AM 82.6°F28.1°C 63.2°F17.3°C 52% 1.2 mph NNW1.9 kmh NNW 3.5 mph5.6 kmh 29.99 in1015.6 mb - 0.00 in0.0 mm 0.03 in0.8 mm
11:10 AM 82.8°F28.2°C 62.8°F17.1°C 51% 1.2 mph WNW1.9 kmh WNW 1.2 mph1.9 kmh 29.99 in1015.6 mb - 0.00 in0.0 mm 0.03 in0.8 mm
11:00 AM 82.0°F27.8°C 63.8°F17.7°C 54% 1.2 mph NNE1.9 kmh NNE -- 29.99 in1015.6 mb - 0.00 in0.0 mm 0.03 in0.8 mm
10:50 AM 81.5°F27.5°C 64.3°F17.9°C 56% 2.3 mph SSE3.7 kmh SSE 2.3 mph3.7 kmh 29.99 in1015.6 mb - 0.00 in0.0 mm 0.03 in0.8 mm
10:40 AM 81.0°F27.2°C 64.3°F17.9°C 57% 1.2 mph SE1.9 kmh SE 2.3 mph3.7 kmh 30.00 in1015.9 mb - 0.00 in0.0 mm 0.03 in0.8 mm
10:30 AM 80.2°F26.8°C 63.6°F17.6°C 57% 1.2 mph SE1.9 kmh SE 1.2 mph1.9 kmh 30.00 in1015.9 mb - 0.00 in0.0 mm 0.03 in0.8 mm
10:20 AM 79.7°F26.5°C 63.6°F17.6°C 58% 1.2 mph SSE1.9 kmh SSE 2.3 mph3.7 kmh 30.00 in1015.9 mb - 0.00 in0.0 mm 0.03 in0.8 mm
10:10 AM 79.0°F26.1°C 63.9°F17.7°C 60% 2.3 mph E3.7 kmh E 2.3 mph3.7 kmh 30.00 in1015.9 mb - 0.00 in0.0 mm 0.03 in0.8 mm
10:00 AM 78.3°F25.7°C 63.2°F17.3°C 60% 2.3 mph NE3.7 kmh NE 2.3 mph3.7 kmh 30.00 in1015.9 mb - 0.00 in0.0 mm 0.03 in0.8 mm
09:50 AM 77.4°F25.2°C 62.9°F17.2°C 61% 2.3 mph NW3.7 kmh NW 3.5 mph5.6 kmh 30.00 in1015.9 mb - 0.00 in0.0 mm 0.03 in0.8 mm
09:40 AM 76.1°F24.5°C 61.7°F16.5°C 61% 1.2 mph ENE1.9 kmh ENE 3.5 mph5.6 kmh 30.01 in1016.3 mb - 0.00 in0.0 mm 0.03 in0.8 mm
09:30 AM 75.9°F24.4°C 62.9°F17.2°C 64% 2.3 mph NE3.7 kmh NE 2.3 mph3.7 kmh 30.01 in1016.3 mb - 0.00 in0.0 mm 0.03 in0.8 mm
09:20 AM 74.5°F23.6°C 61.9°F16.6°C 65% 1.2 mph ENE1.9 kmh ENE 3.5 mph5.6 kmh 30.01 in1016.3 mb - 0.00 in0.0 mm 0.03 in0.8 mm
09:10 AM 73.4°F23.0°C 61.3°F16.3°C 66% 2.3 mph S3.7 kmh S -- 30.01 in1016.3 mb - 0.00 in0.0 mm 0.03 in0.8 mm
09:00 AM 73.2°F22.9°C 61.6°F16.4°C 67% 1.2 mph ENE1.9 kmh ENE 1.2 mph1.9 kmh 30.00 in1015.9 mb - 0.00 in0.0 mm 0.03 in0.8 mm
08:50 AM 72.3°F22.4°C 62.0°F16.7°C 70% 2.3 mph NNE3.7 kmh NNE 2.3 mph3.7 kmh 30.00 in1015.9 mb - 0.00 in0.0 mm 0.03 in0.8 mm
08:40 AM 71.2°F21.8°C 61.4°F16.3°C 71% 1.2 mph 1.9 kmh 4.6 mph7.4 kmh 30.00 in1015.9 mb - 0.00 in0.0 mm 0.03 in0.8 mm
08:30 AM 70.3°F21.3°C 61.3°F16.3°C 73% 2.3 mph 3.7 kmh 1.2 mph1.9 kmh 30.00 in1015.9 mb - 0.00 in0.0 mm 0.03 in0.8 mm
08:20 AM 70.3°F21.3°C 62.0°F16.7°C 75% 2.3 mph NNE3.7 kmh NNE -- 30.00 in1015.9 mb - 0.00 in0.0 mm 0.03 in0.8 mm
08:10 AM 69.4°F20.8°C 60.4°F15.8°C 73% 2.3 mph 3.7 kmh 3.5 mph5.6 kmh 30.00 in1015.9 mb - 0.00 in0.0 mm 0.03 in0.8 mm
08:00 AM 68.5°F20.3°C 61.0°F16.1°C 77% 2.3 mph NE3.7 kmh NE 3.5 mph5.6 kmh 29.99 in1015.6 mb - 0.00 in0.0 mm 0.03 in0.8 mm
07:50 AM 68.0°F20.0°C 61.2°F16.2°C 79% 1.2 mph SE1.9 kmh SE -- 29.99 in1015.6 mb - 0.00 in0.0 mm 0.03 in0.8 mm
07:40 AM 67.3°F19.6°C 60.9°F16.1°C 80% 1.2 mph NNE1.9 kmh NNE 2.3 mph3.7 kmh 29.99 in1015.6 mb - 0.00 in0.0 mm 0.03 in0.8 mm
07:30 AM 66.6°F19.2°C 60.5°F15.8°C 81% 1.2 mph NNW1.9 kmh NNW 3.5 mph5.6 kmh 29.99 in1015.6 mb - 0.00 in0.0 mm 0.03 in0.8 mm
07:20 AM 66.2°F19.0°C 60.9°F16.1°C 83% 1.2 mph NW1.9 kmh NW -- 29.98 in1015.2 mb - 0.00 in0.0 mm 0.03 in0.8 mm
07:10 AM 65.7°F18.7°C 60.4°F15.8°C 83% 1.2 mph NW1.9 kmh NW 3.5 mph5.6 kmh 29.98 in1015.2 mb - 0.00 in0.0 mm 0.03 in0.8 mm
07:00 AM 65.1°F18.4°C 60.5°F15.8°C 85% 1.2 mph NNW1.9 kmh NNW 1.2 mph1.9 kmh 29.98 in1015.2 mb - 0.00 in0.0 mm 0.03 in0.8 mm
06:50 AM 64.4°F18.0°C 59.8°F15.4°C 85% 1.2 mph NNW1.9 kmh NNW 1.2 mph1.9 kmh 29.98 in1015.2 mb - 0.00 in0.0 mm 0.03 in0.8 mm
06:40 AM 63.7°F17.6°C 59.7°F15.4°C 87% 1.2 mph NNE1.9 kmh NNE 3.5 mph5.6 kmh 29.98 in1015.2 mb - 0.00 in0.0 mm 0.03 in0.8 mm
06:30 AM 63.1°F17.3°C 59.2°F15.1°C 87% 1.2 mph NNE1.9 kmh NNE -- 29.98 in1015.2 mb - 0.00 in0.0 mm 0.03 in0.8 mm
06:20 AM 63.0°F17.2°C 59.0°F15.0°C 87% Calm Calm -- 29.98 in1015.2 mb - 0.00 in0.0 mm 0.03 in0.8 mm
06:10 AM 62.6°F17.0°C 58.7°F14.8°C 87% Calm Calm -- 29.98 in1015.2 mb - 0.00 in0.0 mm 0.03 in0.8 mm
06:00 AM 62.4°F16.9°C 58.5°F14.7°C 87% Calm Calm -- 29.98 in1015.2 mb - 0.00 in0.0 mm 0.03 in0.8 mm
05:50 AM 62.2°F16.8°C 58.3°F14.6°C 87% Calm Calm -- 29.98 in1015.2 mb - 0.00 in0.0 mm 0.03 in0.8 mm
05:40 AM 62.2°F16.8°C 58.3°F14.6°C 87% 1.2 mph NW1.9 kmh NW -- 29.97 in1014.9 mb - 0.00 in0.0 mm 0.03 in0.8 mm
05:30 AM 62.2°F16.8°C 58.3°F14.6°C 87% 2.3 mph 3.7 kmh 2.3 mph3.7 kmh 29.97 in1014.9 mb - 0.00 in0.0 mm 0.03 in0.8 mm
05:20 AM 62.6°F17.0°C 58.4°F14.7°C 86% 2.3 mph NNE3.7 kmh NNE 3.5 mph5.6 kmh 29.97 in1014.9 mb - 0.00 in0.0 mm 0.03 in0.8 mm
05:10 AM 63.0°F17.2°C 58.4°F14.7°C 85% 2.3 mph NNE3.7 kmh NNE 2.3 mph3.7 kmh 29.97 in1014.9 mb - 0.00 in0.0 mm 0.03 in0.8 mm
05:00 AM 63.5°F17.5°C 58.2°F14.6°C 83% 2.3 mph NE3.7 kmh NE 4.6 mph7.4 kmh 29.96 in1014.6 mb - 0.00 in0.0 mm 0.03 in0.8 mm
04:50 AM 64.0°F17.8°C 58.1°F14.5°C 81% 2.3 mph NW3.7 kmh NW 1.2 mph1.9 kmh 29.96 in1014.6 mb - 0.00 in0.0 mm 0.00 in0.0 mm
04:40 AM 63.9°F17.7°C 57.6°F14.2°C 80% 2.3 mph NNW3.7 kmh NNW 2.3 mph3.7 kmh 29.97 in1014.9 mb - 0.00 in0.0 mm 0.00 in0.0 mm
04:30 AM 63.9°F17.7°C 57.6°F14.2°C 80% 2.3 mph NNE3.7 kmh NNE 2.3 mph3.7 kmh 29.97 in1014.9 mb - 0.00 in0.0 mm 0.00 in0.0 mm
04:20 AM 64.0°F17.8°C 57.7°F14.3°C 80% 2.3 mph NE3.7 kmh NE 2.3 mph3.7 kmh 29.98 in1015.2 mb - 0.00 in0.0 mm 0.00 in0.0 mm
04:10 AM 63.9°F17.7°C 57.6°F14.2°C 80% 2.3 mph NE3.7 kmh NE 2.3 mph3.7 kmh 29.98 in1015.2 mb - 0.00 in0.0 mm 0.00 in0.0 mm
04:00 AM 63.7°F17.6°C 57.4°F14.1°C 80% 2.3 mph NW3.7 kmh NW 3.5 mph5.6 kmh 29.96 in1014.6 mb - 0.00 in0.0 mm 0.00 in0.0 mm
03:50 AM 63.7°F17.6°C 57.4°F14.1°C 80% 1.2 mph NNW1.9 kmh NNW 3.5 mph5.6 kmh 29.96 in1014.6 mb - 0.00 in0.0 mm 0.00 in0.0 mm
03:40 AM 63.7°F17.6°C 57.0°F13.9°C 79% Calm Calm -- 29.96 in1014.6 mb - 0.00 in0.0 mm 0.00 in0.0 mm
03:30 AM 63.9°F17.7°C 57.2°F14.0°C 79% 1.2 mph NE1.9 kmh NE 1.2 mph1.9 kmh 29.96 in1014.6 mb - 0.00 in0.0 mm 0.00 in0.0 mm
03:20 AM 64.0°F17.8°C 57.4°F14.1°C 79% 3.5 mph NNW5.6 kmh NNW 4.6 mph7.4 kmh 29.96 in1014.6 mb - 0.00 in0.0 mm 0.00 in0.0 mm
03:10 AM 64.4°F18.0°C 57.7°F14.3°C 79% 2.3 mph 3.7 kmh 4.6 mph7.4 kmh 29.96 in1014.6 mb - 0.00 in0.0 mm 0.00 in0.0 mm
03:00 AM 64.4°F18.0°C 57.4°F14.1°C 78% 2.3 mph E3.7 kmh E 2.3 mph3.7 kmh 29.97 in1014.9 mb - 0.00 in0.0 mm 0.00 in0.0 mm
02:50 AM 64.6°F18.1°C 57.2°F14.0°C 77% 2.3 mph NNE3.7 kmh NNE 3.5 mph5.6 kmh 29.97 in1014.9 mb - 0.00 in0.0 mm 0.00 in0.0 mm
02:40 AM 64.9°F18.3°C 57.6°F14.2°C 77% 2.3 mph NE3.7 kmh NE 3.5 mph5.6 kmh 29.96 in1014.6 mb - 0.00 in0.0 mm 0.00 in0.0 mm
02:30 AM 65.3°F18.5°C 57.9°F14.4°C 77% 2.3 mph 3.7 kmh 1.2 mph1.9 kmh 29.96 in1014.6 mb - 0.00 in0.0 mm 0.00 in0.0 mm
02:20 AM 65.5°F18.6°C 58.1°F14.5°C 77% 2.3 mph 3.7 kmh 3.5 mph5.6 kmh 29.96 in1014.6 mb - 0.00 in0.0 mm 0.00 in0.0 mm
02:10 AM 65.8°F18.8°C 58.1°F14.5°C 76% 2.3 mph ENE3.7 kmh ENE 4.6 mph7.4 kmh 29.96 in1014.6 mb - 0.00 in0.0 mm 0.00 in0.0 mm
02:00 AM 66.0°F18.9°C 57.9°F14.4°C 75% 2.3 mph NNE3.7 kmh NNE 1.2 mph1.9 kmh 29.95 in1014.2 mb - 0.00 in0.0 mm 0.00 in0.0 mm
01:50 AM 66.6°F19.2°C 58.4°F14.7°C 75% 2.3 mph NNE3.7 kmh NNE 3.5 mph5.6 kmh 29.95 in1014.2 mb - 0.00 in0.0 mm 0.00 in0.0 mm
01:40 AM 66.9°F19.4°C 58.7°F14.8°C 75% 2.3 mph NNW3.7 kmh NNW 2.3 mph3.7 kmh 29.96 in1014.6 mb - 0.00 in0.0 mm 0.00 in0.0 mm
01:30 AM 66.7°F19.3°C 58.6°F14.8°C 75% 2.3 mph NE3.7 kmh NE 2.3 mph3.7 kmh 29.96 in1014.6 mb - 0.00 in0.0 mm 0.00 in0.0 mm
01:20 AM 67.3°F19.6°C 59.1°F15.1°C 75% 1.2 mph NNW1.9 kmh NNW 5.8 mph9.3 kmh 29.95 in1014.2 mb - 0.00 in0.0 mm 0.00 in0.0 mm
01:10 AM 67.6°F19.8°C 59.4°F15.2°C 75% 2.3 mph NNE3.7 kmh NNE 2.3 mph3.7 kmh 29.95 in1014.2 mb - 0.00 in0.0 mm 0.00 in0.0 mm
01:00 AM 67.8°F19.9°C 59.6°F15.3°C 75% 2.3 mph NE3.7 kmh NE 3.5 mph5.6 kmh 29.95 in1014.2 mb - 0.00 in0.0 mm 0.00 in0.0 mm
12:50 AM 68.4°F20.2°C 59.7°F15.4°C 74% 2.3 mph NE3.7 kmh NE 3.5 mph5.6 kmh 29.95 in1014.2 mb - 0.00 in0.0 mm 0.00 in0.0 mm
12:40 AM 68.7°F20.4°C 60.1°F15.6°C 74% 2.3 mph 3.7 kmh 6.9 mph11.1 kmh 29.95 in1014.2 mb - 0.00 in0.0 mm 0.00 in0.0 mm
12:30 AM 69.3°F20.7°C 60.6°F15.9°C 74% 2.3 mph NNW3.7 kmh NNW 4.6 mph7.4 kmh 29.95 in1014.2 mb - 0.00 in0.0 mm 0.00 in0.0 mm
12:20 AM 69.8°F21.0°C 61.1°F16.2°C 74% 2.3 mph NE3.7 kmh NE 3.5 mph5.6 kmh 29.95 in1014.2 mb - 0.00 in0.0 mm 0.00 in0.0 mm
12:10 AM 70.2°F21.2°C 61.1°F16.2°C 73% 2.3 mph 3.7 kmh 3.5 mph5.6 kmh 29.95 in1014.2 mb - 0.00 in0.0 mm 0.00 in0.0 mm
12:00 AM 70.2°F21.2°C 60.7°F15.9°C 72% 2.3 mph NNE3.7 kmh NNE 2.3 mph3.7 kmh 29.95 in1014.2 mb - 0.00 in0.0 mm 0.00 in0.0 mm